sensor_id;sensor_type;location;lat;lon;timestamp;P1;durP1;ratioP1;P2;durP2;ratioP2
67500;SDS011;54349;52.528;19.760;2023-02-28T00:01:33;12.30;;;6.60;;
67500;SDS011;54349;52.528;19.760;2023-02-28T00:04:01;11.20;;;6.50;;
67500;SDS011;54349;52.528;19.760;2023-02-28T00:06:30;11.60;;;6.50;;
67500;SDS011;54349;52.528;19.760;2023-02-28T00:08:58;13.30;;;6.40;;
67500;SDS011;54349;52.528;19.760;2023-02-28T00:11:26;11.40;;;6.60;;
67500;SDS011;54349;52.528;19.760;2023-02-28T00:13:55;11.20;;;6.90;;
67500;SDS011;54349;52.528;19.760;2023-02-28T00:16:23;11.40;;;6.70;;
67500;SDS011;54349;52.528;19.760;2023-02-28T00:18:52;11.40;;;6.40;;
67500;SDS011;54349;52.528;19.760;2023-02-28T00:21:20;12.10;;;6.90;;
67500;SDS011;54349;52.528;19.760;2023-02-28T00:23:48;12.50;;;7.00;;
67500;SDS011;54349;52.528;19.760;2023-02-28T00:26:16;12.20;;;7.10;;
67500;SDS011;54349;52.528;19.760;2023-02-28T00:28:48;11.80;;;6.20;;
67500;SDS011;54349;52.528;19.760;2023-02-28T00:31:17;11.40;;;6.60;;
67500;SDS011;54349;52.528;19.760;2023-02-28T00:33:45;11.80;;;6.60;;
67500;SDS011;54349;52.528;19.760;2023-02-28T00:36:14;12.50;;;6.90;;
67500;SDS011;54349;52.528;19.760;2023-02-28T00:38:43;10.40;;;6.30;;
67500;SDS011;54349;52.528;19.760;2023-02-28T00:41:11;11.20;;;6.60;;
67500;SDS011;54349;52.528;19.760;2023-02-28T00:43:39;10.80;;;6.10;;
67500;SDS011;54349;52.528;19.760;2023-02-28T00:46:08;11.00;;;6.10;;
67500;SDS011;54349;52.528;19.760;2023-02-28T00:48:36;11.30;;;6.20;;
67500;SDS011;54349;52.528;19.760;2023-02-28T00:51:05;11.10;;;6.60;;
67500;SDS011;54349;52.528;19.760;2023-02-28T00:53:33;12.20;;;6.90;;
67500;SDS011;54349;52.528;19.760;2023-02-28T00:56:02;12.70;;;6.50;;
67500;SDS011;54349;52.528;19.760;2023-02-28T00:58:31;10.20;;;5.90;;
67500;SDS011;54349;52.528;19.760;2023-02-28T01:00:59;11.90;;;6.60;;
67500;SDS011;54349;52.528;19.760;2023-02-28T01:03:28;11.10;;;6.10;;
67500;SDS011;54349;52.528;19.760;2023-02-28T01:05:56;11.90;;;7.10;;
67500;SDS011;54349;52.528;19.760;2023-02-28T01:08:25;10.60;;;6.60;;
67500;SDS011;54349;52.528;19.760;2023-02-28T01:10:54;11.00;;;6.40;;
67500;SDS011;54349;52.528;19.760;2023-02-28T01:13:23;13.00;;;6.90;;
67500;SDS011;54349;52.528;19.760;2023-02-28T01:15:55;13.60;;;6.80;;
67500;SDS011;54349;52.528;19.760;2023-02-28T01:18:25;13.00;;;6.60;;
67500;SDS011;54349;52.528;19.760;2023-02-28T01:20:53;10.90;;;6.30;;
67500;SDS011;54349;52.528;19.760;2023-02-28T01:23:22;13.30;;;7.10;;
67500;SDS011;54349;52.528;19.760;2023-02-28T01:25:52;12.60;;;7.10;;
67500;SDS011;54349;52.528;19.760;2023-02-28T01:28:20;11.20;;;6.70;;
67500;SDS011;54349;52.528;19.760;2023-02-28T01:30:50;11.90;;;6.70;;
67500;SDS011;54349;52.528;19.760;2023-02-28T01:33:19;12.00;;;7.20;;
67500;SDS011;54349;52.528;19.760;2023-02-28T01:35:47;13.10;;;7.60;;
67500;SDS011;54349;52.528;19.760;2023-02-28T01:38:16;13.90;;;7.70;;
67500;SDS011;54349;52.528;19.760;2023-02-28T01:40:50;12.20;;;6.90;;
67500;SDS011;54349;52.528;19.760;2023-02-28T01:43:23;12.50;;;7.00;;
67500;SDS011;54349;52.528;19.760;2023-02-28T01:45:57;12.70;;;6.90;;
67500;SDS011;54349;52.528;19.760;2023-02-28T01:48:31;12.50;;;7.20;;
67500;SDS011;54349;52.528;19.760;2023-02-28T01:51:06;13.50;;;7.40;;
67500;SDS011;54349;52.528;19.760;2023-02-28T01:53:44;11.90;;;7.40;;
67500;SDS011;54349;52.528;19.760;2023-02-28T01:56:20;13.30;;;7.30;;
67500;SDS011;54349;52.528;19.760;2023-02-28T01:58:53;13.80;;;7.70;;
67500;SDS011;54349;52.528;19.760;2023-02-28T02:01:24;12.40;;;7.10;;
67500;SDS011;54349;52.528;19.760;2023-02-28T02:03:58;13.90;;;7.40;;
67500;SDS011;54349;52.528;19.760;2023-02-28T02:06:34;12.70;;;7.40;;
67500;SDS011;54349;52.528;19.760;2023-02-28T02:09:07;14.80;;;7.50;;
67500;SDS011;54349;52.528;19.760;2023-02-28T02:11:36;13.80;;;7.20;;
67500;SDS011;54349;52.528;19.760;2023-02-28T02:17:16;13.20;;;7.50;;
67500;SDS011;54349;52.528;19.760;2023-02-28T02:20:19;12.90;;;7.10;;
67500;SDS011;54349;52.528;19.760;2023-02-28T02:24:20;14.40;;;7.20;;
67500;SDS011;54349;52.528;19.760;2023-02-28T02:33:14;14.70;;;7.60;;
67500;SDS011;54349;52.528;19.760;2023-02-28T02:36:18;13.10;;;7.60;;
67500;SDS011;54349;52.528;19.760;2023-02-28T02:38:58;15.10;;;7.20;;
67500;SDS011;54349;52.528;19.760;2023-02-28T02:41:38;16.20;;;7.90;;
67500;SDS011;54349;52.528;19.760;2023-02-28T02:44:23;13.20;;;7.40;;
67500;SDS011;54349;52.528;19.760;2023-02-28T02:47:12;13.70;;;7.30;;
67500;SDS011;54349;52.528;19.760;2023-02-28T02:49:49;14.10;;;7.80;;
67500;SDS011;54349;52.528;19.760;2023-02-28T02:52:24;13.70;;;7.60;;
67500;SDS011;54349;52.528;19.760;2023-02-28T02:54:59;13.60;;;7.80;;
67500;SDS011;54349;52.528;19.760;2023-02-28T02:57:35;14.00;;;7.20;;
67500;SDS011;54349;52.528;19.760;2023-02-28T03:00:08;13.20;;;7.40;;
67500;SDS011;54349;52.528;19.760;2023-02-28T03:02:40;14.60;;;7.90;;
67500;SDS011;54349;52.528;19.760;2023-02-28T03:05:35;14.20;;;8.30;;
67500;SDS011;54349;52.528;19.760;2023-02-28T03:08:10;15.30;;;8.20;;
67500;SDS011;54349;52.528;19.760;2023-02-28T03:10:41;12.80;;;7.50;;
67500;SDS011;54349;52.528;19.760;2023-02-28T03:19:13;11.90;;;7.50;;
67500;SDS011;54349;52.528;19.760;2023-02-28T03:21:53;14.40;;;8.10;;
67500;SDS011;54349;52.528;19.760;2023-02-28T03:25:04;16.10;;;8.20;;
67500;SDS011;54349;52.528;19.760;2023-02-28T03:30:42;15.10;;;8.40;;
67500;SDS011;54349;52.528;19.760;2023-02-28T03:33:24;15.20;;;8.00;;
67500;SDS011;54349;52.528;19.760;2023-02-28T03:36:02;14.80;;;8.00;;
67500;SDS011;54349;52.528;19.760;2023-02-28T03:38:42;15.00;;;7.90;;
67500;SDS011;54349;52.528;19.760;2023-02-28T03:41:17;13.00;;;7.70;;
67500;SDS011;54349;52.528;19.760;2023-02-28T03:44:11;13.50;;;7.30;;
67500;SDS011;54349;52.528;19.760;2023-02-28T03:47:14;14.60;;;7.20;;
67500;SDS011;54349;52.528;19.760;2023-02-28T03:49:59;13.40;;;7.50;;
67500;SDS011;54349;52.528;19.760;2023-02-28T03:52:39;15.50;;;7.80;;
67500;SDS011;54349;52.528;19.760;2023-02-28T03:55:15;13.60;;;7.70;;
67500;SDS011;54349;52.528;19.760;2023-02-28T04:00:52;14.60;;;7.80;;
67500;SDS011;54349;52.528;19.760;2023-02-28T04:03:36;13.60;;;7.80;;
67500;SDS011;54349;52.528;19.760;2023-02-28T04:06:08;14.30;;;7.80;;
67500;SDS011;54349;52.528;19.760;2023-02-28T04:08:43;14.50;;;8.20;;
67500;SDS011;54349;52.528;19.760;2023-02-28T04:13:48;17.40;;;8.30;;
67500;SDS011;54349;52.528;19.760;2023-02-28T04:16:17;15.40;;;8.30;;
67500;SDS011;54349;52.528;19.760;2023-02-28T04:19:06;13.90;;;8.40;;
67500;SDS011;54349;52.528;19.760;2023-02-28T04:21:40;15.00;;;8.70;;
67500;SDS011;54349;52.528;19.760;2023-02-28T04:24:13;14.60;;;8.30;;
67500;SDS011;54349;52.528;19.760;2023-02-28T04:26:45;13.80;;;8.00;;
67500;SDS011;54349;52.528;19.760;2023-02-28T04:29:30;13.70;;;8.20;;
67500;SDS011;54349;52.528;19.760;2023-02-28T04:32:03;13.90;;;8.40;;
67500;SDS011;54349;52.528;19.760;2023-02-28T04:34:32;16.50;;;8.50;;
67500;SDS011;54349;52.528;19.760;2023-02-28T04:37:00;15.80;;;8.30;;
67500;SDS011;54349;52.528;19.760;2023-02-28T04:39:41;16.10;;;9.00;;
67500;SDS011;54349;52.528;19.760;2023-02-28T04:42:11;16.00;;;8.70;;
67500;SDS011;54349;52.528;19.760;2023-02-28T04:44:39;14.00;;;8.00;;
67500;SDS011;54349;52.528;19.760;2023-02-28T04:47:07;15.30;;;8.60;;
67500;SDS011;54349;52.528;19.760;2023-02-28T04:49:35;16.80;;;9.00;;
67500;SDS011;54349;52.528;19.760;2023-02-28T04:52:03;14.30;;;8.50;;
67500;SDS011;54349;52.528;19.760;2023-02-28T04:54:32;14.90;;;8.40;;
67500;SDS011;54349;52.528;19.760;2023-02-28T04:57:00;14.80;;;8.60;;
67500;SDS011;54349;52.528;19.760;2023-02-28T04:59:29;15.70;;;8.80;;
67500;SDS011;54349;52.528;19.760;2023-02-28T05:01:57;14.00;;;8.40;;
67500;SDS011;54349;52.528;19.760;2023-02-28T05:04:25;15.80;;;8.90;;
67500;SDS011;54349;52.528;19.760;2023-02-28T05:06:53;15.80;;;8.80;;
67500;SDS011;54349;52.528;19.760;2023-02-28T05:09:23;13.90;;;8.40;;
67500;SDS011;54349;52.528;19.760;2023-02-28T05:11:51;15.20;;;8.40;;
67500;SDS011;54349;52.528;19.760;2023-02-28T05:14:19;15.70;;;8.80;;
67500;SDS011;54349;52.528;19.760;2023-02-28T05:16:47;14.00;;;8.40;;
67500;SDS011;54349;52.528;19.760;2023-02-28T05:19:15;14.90;;;8.60;;
67500;SDS011;54349;52.528;19.760;2023-02-28T05:21:50;17.10;;;8.70;;
67500;SDS011;54349;52.528;19.760;2023-02-28T05:24:20;16.40;;;8.60;;
67500;SDS011;54349;52.528;19.760;2023-02-28T05:26:53;15.50;;;8.30;;
67500;SDS011;54349;52.528;19.760;2023-02-28T05:29:22;15.20;;;9.00;;
67500;SDS011;54349;52.528;19.760;2023-02-28T05:31:50;15.20;;;8.80;;
67500;SDS011;54349;52.528;19.760;2023-02-28T05:34:18;13.20;;;8.20;;
67500;SDS011;54349;52.528;19.760;2023-02-28T05:36:46;14.40;;;8.40;;
67500;SDS011;54349;52.528;19.760;2023-02-28T05:39:14;14.10;;;8.60;;
67500;SDS011;54349;52.528;19.760;2023-02-28T05:41:43;15.70;;;8.90;;
67500;SDS011;54349;52.528;19.760;2023-02-28T05:44:11;15.30;;;9.40;;
67500;SDS011;54349;52.528;19.760;2023-02-28T05:46:40;14.80;;;8.20;;
67500;SDS011;54349;52.528;19.760;2023-02-28T05:49:08;15.10;;;9.20;;
67500;SDS011;54349;52.528;19.760;2023-02-28T05:51:37;14.40;;;8.50;;
67500;SDS011;54349;52.528;19.760;2023-02-28T05:54:07;14.50;;;8.60;;
67500;SDS011;54349;52.528;19.760;2023-02-28T05:56:35;15.20;;;8.30;;
67500;SDS011;54349;52.528;19.760;2023-02-28T05:59:06;15.00;;;8.50;;
67500;SDS011;54349;52.528;19.760;2023-02-28T06:01:41;16.70;;;9.30;;
67500;SDS011;54349;52.528;19.760;2023-02-28T06:04:18;15.20;;;8.40;;
67500;SDS011;54349;52.528;19.760;2023-02-28T06:06:58;14.70;;;8.80;;
67500;SDS011;54349;52.528;19.760;2023-02-28T06:09:27;14.90;;;8.20;;
67500;SDS011;54349;52.528;19.760;2023-02-28T06:11:58;15.20;;;8.60;;
67500;SDS011;54349;52.528;19.760;2023-02-28T06:14:27;14.50;;;8.90;;
67500;SDS011;54349;52.528;19.760;2023-02-28T06:16:55;14.40;;;9.00;;
67500;SDS011;54349;52.528;19.760;2023-02-28T06:19:26;14.40;;;8.40;;
67500;SDS011;54349;52.528;19.760;2023-02-28T06:21:56;13.90;;;8.40;;
67500;SDS011;54349;52.528;19.760;2023-02-28T06:24:25;15.20;;;8.80;;
67500;SDS011;54349;52.528;19.760;2023-02-28T06:26:55;15.00;;;8.80;;
67500;SDS011;54349;52.528;19.760;2023-02-28T06:29:25;15.30;;;9.00;;
67500;SDS011;54349;52.528;19.760;2023-02-28T06:31:53;15.60;;;9.00;;
67500;SDS011;54349;52.528;19.760;2023-02-28T06:34:21;14.10;;;8.60;;
67500;SDS011;54349;52.528;19.760;2023-02-28T06:36:51;16.40;;;9.20;;
67500;SDS011;54349;52.528;19.760;2023-02-28T06:39:19;15.00;;;9.10;;
67500;SDS011;54349;52.528;19.760;2023-02-28T06:41:47;15.30;;;9.40;;
67500;SDS011;54349;52.528;19.760;2023-02-28T06:46:51;13.90;;;8.80;;
67500;SDS011;54349;52.528;19.760;2023-02-28T06:49:19;16.40;;;9.20;;
67500;SDS011;54349;52.528;19.760;2023-02-28T06:51:48;16.10;;;9.40;;
67500;SDS011;54349;52.528;19.760;2023-02-28T06:54:16;16.40;;;10.00;;
67500;SDS011;54349;52.528;19.760;2023-02-28T06:56:44;17.10;;;9.90;;
67500;SDS011;54349;52.528;19.760;2023-02-28T06:59:13;21.40;;;10.90;;
67500;SDS011;54349;52.528;19.760;2023-02-28T07:01:41;19.00;;;10.20;;
67500;SDS011;54349;52.528;19.760;2023-02-28T07:04:09;21.50;;;10.50;;
67500;SDS011;54349;52.528;19.760;2023-02-28T07:06:38;21.80;;;10.90;;
67500;SDS011;54349;52.528;19.760;2023-02-28T07:09:07;19.20;;;11.00;;
67500;SDS011;54349;52.528;19.760;2023-02-28T07:11:36;22.20;;;10.60;;
67500;SDS011;54349;52.528;19.760;2023-02-28T07:14:04;20.40;;;10.70;;
67500;SDS011;54349;52.528;19.760;2023-02-28T07:16:33;20.00;;;10.50;;
67500;SDS011;54349;52.528;19.760;2023-02-28T07:19:01;19.20;;;10.40;;
67500;SDS011;54349;52.528;19.760;2023-02-28T07:21:30;18.30;;;10.60;;
67500;SDS011;54349;52.528;19.760;2023-02-28T07:23:59;19.50;;;10.70;;
67500;SDS011;54349;52.528;19.760;2023-02-28T07:26:28;18.60;;;10.40;;
67500;SDS011;54349;52.528;19.760;2023-02-28T07:28:56;18.40;;;10.80;;
67500;SDS011;54349;52.528;19.760;2023-02-28T07:31:25;19.70;;;10.70;;
67500;SDS011;54349;52.528;19.760;2023-02-28T07:33:53;18.80;;;10.40;;
67500;SDS011;54349;52.528;19.760;2023-02-28T07:36:21;19.20;;;10.20;;
67500;SDS011;54349;52.528;19.760;2023-02-28T07:38:50;17.70;;;10.20;;
67500;SDS011;54349;52.528;19.760;2023-02-28T07:41:20;16.10;;;9.90;;
67500;SDS011;54349;52.528;19.760;2023-02-28T07:43:49;18.00;;;9.70;;
67500;SDS011;54349;52.528;19.760;2023-02-28T07:46:19;19.20;;;10.00;;
67500;SDS011;54349;52.528;19.760;2023-02-28T07:48:49;16.70;;;9.50;;
67500;SDS011;54349;52.528;19.760;2023-02-28T07:51:17;16.30;;;9.90;;
67500;SDS011;54349;52.528;19.760;2023-02-28T07:53:47;15.40;;;9.60;;
67500;SDS011;54349;52.528;19.760;2023-02-28T07:56:16;16.10;;;8.90;;
67500;SDS011;54349;52.528;19.760;2023-02-28T07:58:45;16.80;;;10.00;;
67500;SDS011;54349;52.528;19.760;2023-02-28T08:01:13;16.20;;;10.00;;
67500;SDS011;54349;52.528;19.760;2023-02-28T08:03:42;17.30;;;9.90;;
67500;SDS011;54349;52.528;19.760;2023-02-28T08:06:18;20.40;;;10.30;;
67500;SDS011;54349;52.528;19.760;2023-02-28T08:08:51;18.30;;;10.10;;
67500;SDS011;54349;52.528;19.760;2023-02-28T08:11:20;18.60;;;10.00;;
67500;SDS011;54349;52.528;19.760;2023-02-28T08:13:49;16.90;;;9.60;;
67500;SDS011;54349;52.528;19.760;2023-02-28T08:16:17;15.50;;;8.80;;
67500;SDS011;54349;52.528;19.760;2023-02-28T08:18:51;16.90;;;9.30;;
67500;SDS011;54349;52.528;19.760;2023-02-28T08:21:21;16.30;;;8.90;;
67500;SDS011;54349;52.528;19.760;2023-02-28T08:23:50;15.60;;;8.60;;
67500;SDS011;54349;52.528;19.760;2023-02-28T08:26:20;16.20;;;8.60;;
67500;SDS011;54349;52.528;19.760;2023-02-28T08:28:49;14.80;;;8.60;;
67500;SDS011;54349;52.528;19.760;2023-02-28T08:31:17;16.00;;;8.80;;
67500;SDS011;54349;52.528;19.760;2023-02-28T08:33:47;16.10;;;8.30;;
67500;SDS011;54349;52.528;19.760;2023-02-28T08:36:20;16.80;;;9.10;;
67500;SDS011;54349;52.528;19.760;2023-02-28T08:38:49;13.10;;;8.20;;
67500;SDS011;54349;52.528;19.760;2023-02-28T08:41:18;17.00;;;8.90;;
67500;SDS011;54349;52.528;19.760;2023-02-28T08:43:46;15.90;;;8.60;;
67500;SDS011;54349;52.528;19.760;2023-02-28T08:46:14;16.90;;;8.90;;
67500;SDS011;54349;52.528;19.760;2023-02-28T08:48:43;13.80;;;8.60;;
67500;SDS011;54349;52.528;19.760;2023-02-28T08:51:16;17.10;;;9.10;;
67500;SDS011;54349;52.528;19.760;2023-02-28T08:53:49;13.40;;;8.40;;
67500;SDS011;54349;52.528;19.760;2023-02-28T08:56:17;14.90;;;8.80;;
67500;SDS011;54349;52.528;19.760;2023-02-28T08:58:48;14.20;;;7.60;;
67500;SDS011;54349;52.528;19.760;2023-02-28T09:01:21;14.00;;;8.10;;
67500;SDS011;54349;52.528;19.760;2023-02-28T09:03:52;16.90;;;8.20;;
67500;SDS011;54349;52.528;19.760;2023-02-28T09:06:23;13.70;;;8.20;;
67500;SDS011;54349;52.528;19.760;2023-02-28T09:08:52;13.30;;;7.90;;
67500;SDS011;54349;52.528;19.760;2023-02-28T09:11:27;13.40;;;8.00;;
67500;SDS011;54349;52.528;19.760;2023-02-28T09:13:55;12.60;;;7.60;;
67500;SDS011;54349;52.528;19.760;2023-02-28T09:16:27;13.50;;;7.70;;
67500;SDS011;54349;52.528;19.760;2023-02-28T09:18:56;15.90;;;8.10;;
67500;SDS011;54349;52.528;19.760;2023-02-28T09:21:26;12.10;;;7.60;;
67500;SDS011;54349;52.528;19.760;2023-02-28T09:23:55;14.30;;;7.80;;
67500;SDS011;54349;52.528;19.760;2023-02-28T09:26:26;13.30;;;7.30;;
67500;SDS011;54349;52.528;19.760;2023-02-28T09:29:09;12.60;;;7.70;;
67500;SDS011;54349;52.528;19.760;2023-02-28T09:31:38;12.10;;;7.50;;
67500;SDS011;54349;52.528;19.760;2023-02-28T09:34:07;12.00;;;7.00;;
67500;SDS011;54349;52.528;19.760;2023-02-28T09:36:35;13.20;;;7.60;;
67500;SDS011;54349;52.528;19.760;2023-02-28T09:39:12;12.40;;;7.50;;
67500;SDS011;54349;52.528;19.760;2023-02-28T09:41:48;13.30;;;7.80;;
67500;SDS011;54349;52.528;19.760;2023-02-28T09:44:25;12.40;;;7.40;;
67500;SDS011;54349;52.528;19.760;2023-02-28T09:47:01;13.90;;;7.10;;
67500;SDS011;54349;52.528;19.760;2023-02-28T09:49:41;12.40;;;7.00;;
67500;SDS011;54349;52.528;19.760;2023-02-28T09:52:25;14.60;;;8.00;;
67500;SDS011;54349;52.528;19.760;2023-02-28T09:57:56;11.00;;;6.60;;
67500;SDS011;54349;52.528;19.760;2023-02-28T10:00:34;12.40;;;7.30;;
67500;SDS011;54349;52.528;19.760;2023-02-28T10:03:36;11.50;;;7.10;;
67500;SDS011;54349;52.528;19.760;2023-02-28T10:08:58;12.70;;;6.90;;
67500;SDS011;54349;52.528;19.760;2023-02-28T10:11:36;12.20;;;6.80;;
67500;SDS011;54349;52.528;19.760;2023-02-28T10:14:16;11.90;;;6.90;;
67500;SDS011;54349;52.528;19.760;2023-02-28T10:16:58;11.70;;;6.40;;
67500;SDS011;54349;52.528;19.760;2023-02-28T10:19:46;13.10;;;6.80;;
67500;SDS011;54349;52.528;19.760;2023-02-28T10:25:27;11.10;;;6.30;;
67500;SDS011;54349;52.528;19.760;2023-02-28T10:28:11;11.00;;;6.10;;
67500;SDS011;54349;52.528;19.760;2023-02-28T10:30:50;10.10;;;6.00;;
67500;SDS011;54349;52.528;19.760;2023-02-28T10:33:32;11.50;;;6.60;;
67500;SDS011;54349;52.528;19.760;2023-02-28T10:36:05;11.60;;;6.70;;
67500;SDS011;54349;52.528;19.760;2023-02-28T10:38:39;11.10;;;6.10;;
67500;SDS011;54349;52.528;19.760;2023-02-28T10:41:10;10.70;;;6.20;;
67500;SDS011;54349;52.528;19.760;2023-02-28T10:43:44;11.50;;;6.00;;
67500;SDS011;54349;52.528;19.760;2023-02-28T10:46:18;9.80;;;6.10;;
67500;SDS011;54349;52.528;19.760;2023-02-28T10:49:04;11.10;;;5.80;;
67500;SDS011;54349;52.528;19.760;2023-02-28T10:51:39;11.40;;;6.20;;
67500;SDS011;54349;52.528;19.760;2023-02-28T10:54:35;9.40;;;5.80;;
67500;SDS011;54349;52.528;19.760;2023-02-28T10:59:45;9.80;;;5.60;;
67500;SDS011;54349;52.528;19.760;2023-02-28T11:02:33;10.60;;;6.10;;
67500;SDS011;54349;52.528;19.760;2023-02-28T11:07:57;12.00;;;6.40;;
67500;SDS011;54349;52.528;19.760;2023-02-28T11:10:39;10.90;;;5.90;;
67500;SDS011;54349;52.528;19.760;2023-02-28T11:13:27;10.40;;;6.20;;
67500;SDS011;54349;52.528;19.760;2023-02-28T11:16:07;10.00;;;6.10;;
67500;SDS011;54349;52.528;19.760;2023-02-28T11:21:22;10.70;;;6.40;;
67500;SDS011;54349;52.528;19.760;2023-02-28T11:24:02;10.50;;;5.90;;
67500;SDS011;54349;52.528;19.760;2023-02-28T11:26:42;9.60;;;5.80;;
67500;SDS011;54349;52.528;19.760;2023-02-28T11:29:28;10.70;;;6.10;;
67500;SDS011;54349;52.528;19.760;2023-02-28T11:34:42;9.90;;;5.80;;
67500;SDS011;54349;52.528;19.760;2023-02-28T11:37:18;10.50;;;6.20;;
67500;SDS011;54349;52.528;19.760;2023-02-28T11:39:47;10.70;;;6.00;;
67500;SDS011;54349;52.528;19.760;2023-02-28T11:45:12;9.90;;;6.20;;
67500;SDS011;54349;52.528;19.760;2023-02-28T11:51:05;12.80;;;6.20;;
67500;SDS011;54349;52.528;19.760;2023-02-28T11:56:47;11.90;;;5.90;;
67500;SDS011;54349;52.528;19.760;2023-02-28T11:59:51;11.10;;;5.90;;
67500;SDS011;54349;52.528;19.760;2023-02-28T12:09:40;11.60;;;6.10;;
67500;SDS011;54349;52.528;19.760;2023-02-28T12:15:53;8.90;;;5.60;;
67500;SDS011;54349;52.528;19.760;2023-02-28T12:21:56;9.20;;;5.50;;
67500;SDS011;54349;52.528;19.760;2023-02-28T12:25:13;9.70;;;5.20;;
67500;SDS011;54349;52.528;19.760;2023-02-28T12:28:09;8.20;;;5.10;;
67500;SDS011;54349;52.528;19.760;2023-02-28T12:31:01;9.20;;;5.80;;
67500;SDS011;54349;52.528;19.760;2023-02-28T12:36:21;11.40;;;5.50;;
67500;SDS011;54349;52.528;19.760;2023-02-28T12:39:12;8.50;;;5.30;;
67500;SDS011;54349;52.528;19.760;2023-02-28T12:41:59;10.90;;;5.70;;
67500;SDS011;54349;52.528;19.760;2023-02-28T12:47:16;9.20;;;5.30;;
67500;SDS011;54349;52.528;19.760;2023-02-28T12:49:54;8.70;;;5.20;;
67500;SDS011;54349;52.528;19.760;2023-02-28T12:52:40;10.60;;;5.50;;
67500;SDS011;54349;52.528;19.760;2023-02-28T12:58:50;9.20;;;5.40;;
67500;SDS011;54349;52.528;19.760;2023-02-28T13:09:34;8.40;;;5.40;;
67500;SDS011;54349;52.528;19.760;2023-02-28T13:12:15;8.80;;;5.20;;
67500;SDS011;54349;52.528;19.760;2023-02-28T13:14:45;8.40;;;4.90;;
67500;SDS011;54349;52.528;19.760;2023-02-28T13:17:20;9.60;;;5.30;;
67500;SDS011;54349;52.528;19.760;2023-02-28T13:24:56;9.90;;;5.10;;
67500;SDS011;54349;52.528;19.760;2023-02-28T13:27:53;8.20;;;4.90;;
67500;SDS011;54349;52.528;19.760;2023-02-28T13:38:57;8.50;;;4.90;;
67500;SDS011;54349;52.528;19.760;2023-02-28T13:44:19;7.70;;;4.60;;
67500;SDS011;54349;52.528;19.760;2023-02-28T13:57:44;7.50;;;4.50;;
67500;SDS011;54349;52.528;19.760;2023-02-28T14:00:57;6.60;;;4.20;;
67500;SDS011;54349;52.528;19.760;2023-02-28T14:06:28;6.00;;;3.90;;
67500;SDS011;54349;52.528;19.760;2023-02-28T14:09:24;6.80;;;4.20;;
67500;SDS011;54349;52.528;19.760;2023-02-28T14:17:17;7.00;;;4.50;;
67500;SDS011;54349;52.528;19.760;2023-02-28T14:19:47;6.50;;;4.10;;
67500;SDS011;54349;52.528;19.760;2023-02-28T14:25:18;6.50;;;3.80;;
67500;SDS011;54349;52.528;19.760;2023-02-28T14:28:49;6.00;;;3.80;;
67500;SDS011;54349;52.528;19.760;2023-02-28T14:31:29;6.00;;;3.70;;
67500;SDS011;54349;52.528;19.760;2023-02-28T14:34:17;7.80;;;4.00;;
67500;SDS011;54349;52.528;19.760;2023-02-28T14:36:58;6.70;;;4.20;;
67500;SDS011;54349;52.528;19.760;2023-02-28T14:39:31;6.40;;;3.70;;
67500;SDS011;54349;52.528;19.760;2023-02-28T14:42:00;6.10;;;3.60;;
67500;SDS011;54349;52.528;19.760;2023-02-28T14:44:32;5.90;;;3.70;;
67500;SDS011;54349;52.528;19.760;2023-02-28T14:47:04;7.10;;;3.70;;
67500;SDS011;54349;52.528;19.760;2023-02-28T14:49:36;7.00;;;3.90;;
67500;SDS011;54349;52.528;19.760;2023-02-28T14:52:19;6.10;;;3.50;;
67500;SDS011;54349;52.528;19.760;2023-02-28T14:55:05;6.00;;;3.40;;
67500;SDS011;54349;52.528;19.760;2023-02-28T14:57:49;5.40;;;3.40;;
67500;SDS011;54349;52.528;19.760;2023-02-28T15:00:24;5.30;;;3.30;;
67500;SDS011;54349;52.528;19.760;2023-02-28T15:02:55;6.70;;;3.30;;
67500;SDS011;54349;52.528;19.760;2023-02-28T15:05:32;5.60;;;3.40;;
67500;SDS011;54349;52.528;19.760;2023-02-28T15:08:14;5.80;;;3.40;;
67500;SDS011;54349;52.528;19.760;2023-02-28T15:13:31;6.00;;;3.20;;
67500;SDS011;54349;52.528;19.760;2023-02-28T15:16:29;5.40;;;3.20;;
67500;SDS011;54349;52.528;19.760;2023-02-28T15:19:05;5.20;;;3.00;;
67500;SDS011;54349;52.528;19.760;2023-02-28T15:21:43;7.10;;;3.20;;
67500;SDS011;54349;52.528;19.760;2023-02-28T15:24:20;4.90;;;3.00;;
67500;SDS011;54349;52.528;19.760;2023-02-28T15:26:56;7.10;;;3.00;;
67500;SDS011;54349;52.528;19.760;2023-02-28T15:29:29;5.00;;;2.90;;
67500;SDS011;54349;52.528;19.760;2023-02-28T15:32:06;5.60;;;3.20;;
67500;SDS011;54349;52.528;19.760;2023-02-28T15:34:38;4.40;;;2.60;;
67500;SDS011;54349;52.528;19.760;2023-02-28T15:43:05;4.30;;;2.70;;
67500;SDS011;54349;52.528;19.760;2023-02-28T15:46:11;4.60;;;2.70;;
67500;SDS011;54349;52.528;19.760;2023-02-28T15:48:52;5.10;;;2.80;;
67500;SDS011;54349;52.528;19.760;2023-02-28T15:54:07;4.90;;;2.70;;
67500;SDS011;54349;52.528;19.760;2023-02-28T15:56:45;5.00;;;3.10;;
67500;SDS011;54349;52.528;19.760;2023-02-28T15:59:19;6.30;;;3.30;;
67500;SDS011;54349;52.528;19.760;2023-02-28T16:05:02;4.90;;;3.00;;
67500;SDS011;54349;52.528;19.760;2023-02-28T16:07:30;4.70;;;2.60;;
67500;SDS011;54349;52.528;19.760;2023-02-28T16:09:59;4.90;;;2.80;;
67500;SDS011;54349;52.528;19.760;2023-02-28T16:12:30;4.90;;;2.80;;
67500;SDS011;54349;52.528;19.760;2023-02-28T16:15:07;5.60;;;3.10;;
67500;SDS011;54349;52.528;19.760;2023-02-28T16:17:44;5.20;;;2.90;;
67500;SDS011;54349;52.528;19.760;2023-02-28T16:20:21;5.10;;;3.00;;
67500;SDS011;54349;52.528;19.760;2023-02-28T16:22:50;5.20;;;2.90;;
67500;SDS011;54349;52.528;19.760;2023-02-28T16:25:23;5.50;;;3.10;;
67500;SDS011;54349;52.528;19.760;2023-02-28T16:27:57;4.90;;;2.80;;
67500;SDS011;54349;52.528;19.760;2023-02-28T16:30:29;6.00;;;3.30;;
67500;SDS011;54349;52.528;19.760;2023-02-28T16:32:59;5.70;;;3.20;;
67500;SDS011;54349;52.528;19.760;2023-02-28T16:35:27;5.40;;;3.00;;
67500;SDS011;54349;52.528;19.760;2023-02-28T16:37:55;4.80;;;2.80;;
67500;SDS011;54349;52.528;19.760;2023-02-28T16:40:25;7.10;;;3.20;;
67500;SDS011;54349;52.528;19.760;2023-02-28T16:42:58;5.60;;;3.40;;
67500;SDS011;54349;52.528;19.760;2023-02-28T16:45:28;5.40;;;3.40;;
67500;SDS011;54349;52.528;19.760;2023-02-28T16:47:57;5.70;;;3.20;;
67500;SDS011;54349;52.528;19.760;2023-02-28T16:50:28;8.20;;;3.30;;
67500;SDS011;54349;52.528;19.760;2023-02-28T16:52:57;5.50;;;3.40;;
67500;SDS011;54349;52.528;19.760;2023-02-28T16:55:26;5.30;;;3.30;;
67500;SDS011;54349;52.528;19.760;2023-02-28T16:58:00;6.60;;;3.80;;
67500;SDS011;54349;52.528;19.760;2023-02-28T17:00:31;7.20;;;4.10;;
67500;SDS011;54349;52.528;19.760;2023-02-28T17:03:00;6.80;;;4.10;;
67500;SDS011;54349;52.528;19.760;2023-02-28T17:05:35;7.70;;;4.10;;
67500;SDS011;54349;52.528;19.760;2023-02-28T17:08:08;6.90;;;4.20;;
67500;SDS011;54349;52.528;19.760;2023-02-28T17:10:37;7.10;;;4.30;;
67500;SDS011;54349;52.528;19.760;2023-02-28T17:13:05;8.10;;;5.10;;
67500;SDS011;54349;52.528;19.760;2023-02-28T17:15:44;8.00;;;4.80;;
67500;SDS011;54349;52.528;19.760;2023-02-28T17:18:16;7.70;;;4.40;;
67500;SDS011;54349;52.528;19.760;2023-02-28T17:20:47;7.90;;;5.10;;
67500;SDS011;54349;52.528;19.760;2023-02-28T17:23:16;7.70;;;4.70;;
67500;SDS011;54349;52.528;19.760;2023-02-28T17:25:44;7.90;;;4.70;;